Time;durP1;ratioP1;P1;durP2;ratioP2;P2;SDS_P1;SDS_P2;PMS_P1;PMS_P2;Temp;Humidity;BMP_temperature;BMP_pressure;BME280_temperature;BME280_humidity;BME280_pressure;Samples;Min_cycle;Max_cycle;Signal;HPM_P1;HPM_P2
2022/12/14 00:00:53;;;;;;;60.78;26.80;;;-4.30;99.90;;;;;;5088978;28;20123;-68
2022/12/14 00:03:19;;;;;;;62.40;26.95;;;-4.40;99.90;;;;;;5070142;28;20047;-70
2022/12/14 00:05:45;;;;;;;62.30;25.58;;;-4.50;99.90;;;;;;5070375;28;20401;-68
2022/12/14 00:08:12;;;;;;;55.47;25.45;;;-4.50;99.90;;;;;;5066821;28;20051;-70
2022/12/14 00:10:39;;;;;;;60.78;25.98;;;-4.60;99.90;;;;;;5087055;28;20093;-69
2022/12/14 00:13:06;;;;;;;54.05;24.35;;;-4.60;99.90;;;;;;5091355;28;20585;-69
2022/12/14 00:15:32;;;;;;;62.38;27.10;;;-4.60;99.90;;;;;;5069355;28;20047;-69
2022/12/14 00:17:58;;;;;;;64.10;26.58;;;-4.60;99.90;;;;;;5089926;28;20024;-68
2022/12/14 00:20:26;;;;;;;60.65;26.00;;;-4.60;99.90;;;;;;5091111;28;20459;-68
2022/12/14 00:22:54;;;;;;;56.75;25.95;;;-4.70;99.90;;;;;;5073257;28;20043;-70
2022/12/14 00:25:19;;;;;;;58.70;26.02;;;-4.70;99.90;;;;;;5076423;28;20039;-68
2022/12/14 00:27:45;;;;;;;57.60;24.48;;;-4.70;99.90;;;;;;5062157;28;20120;-68
2022/12/14 00:30:13;;;;;;;54.50;24.85;;;-4.80;99.90;;;;;;5091405;28;20032;-68
2022/12/14 00:32:39;;;;;;;59.28;25.65;;;-4.80;99.90;;;;;;5066118;28;20065;-68
2022/12/14 00:35:07;;;;;;;58.30;24.85;;;-4.90;99.90;;;;;;5078766;28;20362;-69
2022/12/14 00:37:33;;;;;;;55.67;25.45;;;-5.00;99.90;;;;;;5090752;28;20124;-69
2022/12/14 00:39:59;;;;;;;55.92;25.92;;;-5.00;99.90;;;;;;5072569;28;20115;-69
2022/12/14 00:42:24;;;;;;;68.20;25.92;;;-5.10;99.90;;;;;;5067105;28;20086;-69
2022/12/14 00:44:50;;;;;;;61.10;25.33;;;-5.10;99.90;;;;;;5093944;28;20036;-69
2022/12/14 00:47:15;;;;;;;57.42;24.83;;;-5.00;99.90;;;;;;5094953;28;20093;-69
2022/12/14 00:49:41;;;;;;;59.13;25.65;;;-5.00;99.90;;;;;;5083558;28;20035;-69
2022/12/14 00:52:06;;;;;;;62.95;26.75;;;-5.00;99.90;;;;;;5094612;28;20039;-69
2022/12/14 00:54:32;;;;;;;60.22;25.20;;;-5.00;99.90;;;;;;5095179;28;20040;-69
2022/12/14 00:56:57;;;;;;;66.45;25.92;;;-4.90;99.90;;;;;;5095279;28;20089;-69
2022/12/14 00:59:23;;;;;;;63.15;25.42;;;-4.90;99.90;;;;;;5072204;28;20405;-69
2022/12/14 01:01:49;;;;;;;54.35;24.80;;;-5.00;99.90;;;;;;5093016;28;20109;-69
2022/12/14 01:04:18;;;;;;;62.20;24.48;;;-5.00;99.90;;;;;;5095211;28;20382;-69
2022/12/14 01:06:47;;;;;;;59.33;24.77;;;-5.10;99.90;;;;;;5091028;28;20052;-68
2022/12/14 01:09:13;;;;;;;58.72;25.05;;;-5.20;99.90;;;;;;5091605;28;20107;-68
2022/12/14 01:11:39;;;;;;;53.38;23.65;;;-5.20;99.90;;;;;;5072965;28;20147;-67
2022/12/14 01:14:05;;;;;;;52.67;24.15;;;-5.30;99.90;;;;;;5080766;28;20055;-69
2022/12/14 01:16:31;;;;;;;57.13;23.70;;;-5.30;99.90;;;;;;5067521;28;20495;-69
2022/12/14 01:18:59;;;;;;;57.83;25.10;;;-5.40;99.90;;;;;;5075910;28;20067;-68
2022/12/14 01:21:25;;;;;;;55.08;24.73;;;-5.40;99.90;;;;;;5094579;28;20490;-68
2022/12/14 01:23:56;;;;;;;52.40;23.75;;;-5.30;99.90;;;;;;5087475;28;20520;-70
2022/12/14 01:26:23;;;;;;;53.28;24.48;;;-5.30;99.90;;;;;;5089447;28;20028;-69
2022/12/14 01:28:51;;;;;;;56.20;24.80;;;-5.40;99.90;;;;;;5094369;28;20051;-70
2022/12/14 01:31:19;;;;;;;56.67;24.37;;;-5.40;99.90;;;;;;5066110;28;20044;-68
2022/12/14 01:33:45;;;;;;;54.15;23.25;;;-5.50;99.90;;;;;;5086568;28;20046;-69
2022/12/14 01:36:17;;;;;;;56.53;23.80;;;-5.50;99.90;;;;;;5076163;28;20119;-67
2022/12/14 01:38:43;;;;;;;59.30;23.58;;;-5.50;99.90;;;;;;5081579;22;20057;-68
2022/12/14 01:41:27;;;;;;;56.03;24.75;;;-5.50;99.90;;;;;;5022024;28;20033;-68
2022/12/14 01:43:54;;;;;;;48.08;22.88;;;-5.50;99.90;;;;;;5016047;28;20053;-68
2022/12/14 01:46:42;;;;;;;56.10;24.30;;;-5.50;99.90;;;;;;5016545;28;20049;-69
2022/12/14 01:49:28;;;;;;;54.50;22.33;;;-5.50;99.90;;;;;;4983269;28;20042;-69
2022/12/14 01:51:59;;;;;;;48.50;22.43;;;-5.60;99.90;;;;;;5013154;28;20038;-69
2022/12/14 01:54:28;;;;;;;50.03;22.52;;;-5.70;99.90;;;;;;5011530;28;20454;-70
2022/12/14 01:56:56;;;;;;;50.33;22.17;;;-5.70;99.90;;;;;;5008003;28;20046;-69
2022/12/14 01:59:26;;;;;;;51.00;21.40;;;-5.80;99.90;;;;;;4995930;28;20117;-68
2022/12/14 02:01:54;;;;;;;48.88;22.65;;;-5.90;99.90;;;;;;4996178;28;20050;-69
2022/12/14 02:04:20;;;;;;;58.40;23.98;;;-5.90;99.90;;;;;;5002121;28;20029;-68
2022/12/14 02:06:47;;;;;;;53.23;22.47;;;-5.80;99.90;;;;;;4999874;28;20752;-68
2022/12/14 02:09:18;;;;;;;57.10;23.57;;;-5.80;99.90;;;;;;5002093;28;20049;-68
2022/12/14 02:11:55;;;;;;;51.95;22.08;;;-5.80;99.90;;;;;;5010265;28;20053;-68
2022/12/14 02:14:21;;;;;;;56.97;23.03;;;-5.80;99.90;;;;;;5006981;28;20643;-68
2022/12/14 02:16:51;;;;;;;54.90;22.37;;;-5.80;99.90;;;;;;4997050;28;20042;-68
2022/12/14 02:19:17;;;;;;;56.58;24.23;;;-5.90;99.90;;;;;;5013688;28;20046;-69
2022/12/14 02:21:58;;;;;;;54.73;23.73;;;-5.90;99.90;;;;;;5015375;28;20037;-69
2022/12/14 02:24:45;;;;;;;51.50;22.88;;;-5.80;99.90;;;;;;5011764;28;20053;-69
2022/12/14 02:27:25;;;;;;;58.43;24.27;;;-5.70;99.90;;;;;;5009325;28;20073;-70
2022/12/14 02:30:22;;;;;;;51.57;22.23;;;-5.80;99.90;;;;;;5009471;28;20179;-69
2022/12/14 02:33:12;;;;;;;52.27;21.43;;;-5.80;99.90;;;;;;5011415;28;20068;-69
2022/12/14 02:35:46;;;;;;;57.13;24.47;;;-5.80;99.90;;;;;;4995599;28;20084;-69
2022/12/14 02:38:41;;;;;;;61.27;23.37;;;-5.80;99.90;;;;;;5023506;28;20376;-69
2022/12/14 02:41:37;;;;;;;51.37;22.93;;;-5.90;99.90;;;;;;5030423;28;20047;-69
2022/12/14 02:44:20;;;;;;;58.10;22.33;;;-5.90;99.90;;;;;;5034858;28;20087;-69
2022/12/14 02:47:01;;;;;;;57.20;23.80;;;-6.00;99.90;;;;;;5024801;28;20076;-69
2022/12/14 02:49:55;;;;;;;58.58;23.77;;;-6.00;99.90;;;;;;5034863;28;20060;-69
2022/12/14 02:52:30;;;;;;;51.37;22.20;;;-6.00;99.90;;;;;;5034751;28;20044;-69
2022/12/14 02:55:24;;;;;;;49.73;21.30;;;-6.10;99.90;;;;;;5018629;28;20055;-70
2022/12/14 02:58:11;;;;;;;54.43;22.30;;;-6.20;99.90;;;;;;5037572;28;20052;-69
2022/12/14 03:00:37;;;;;;;46.90;20.00;;;-6.20;99.90;;;;;;5036253;28;20047;-70
2022/12/14 03:03:06;;;;;;;50.60;21.10;;;-6.20;99.90;;;;;;5035341;28;20037;-70
2022/12/14 03:05:33;;;;;;;51.00;21.23;;;-6.30;99.90;;;;;;5030987;28;20044;-70
2022/12/14 03:08:02;;;;;;;53.37;21.30;;;-6.30;99.90;;;;;;5032362;28;20052;-69
2022/12/14 03:10:51;;;;;;;49.20;21.67;;;-6.30;99.90;;;;;;5028383;28;20183;-69
2022/12/14 03:13:23;;;;;;;50.43;20.37;;;-6.40;99.90;;;;;;5032405;28;20437;-69
2022/12/14 03:16:10;;;;;;;;;;;-6.40;99.90;;;;;;5053236;28;20040;-68
2022/12/14 03:18:41;;;;;;;48.43;19.70;;;-6.40;99.90;;;;;;5050531;28;19916;-68
2022/12/14 03:21:10;;;;;;;;;;;-6.30;99.90;;;;;;5034430;28;20038;-68
2022/12/14 03:23:39;;;;;;;45.13;17.87;;;-6.30;99.90;;;;;;5032243;28;19917;-69
2022/12/14 03:26:16;;;;;;;47.07;20.10;;;-6.40;99.90;;;;;;5046929;28;20116;-69
2022/12/14 03:28:50;;;;;;;45.17;19.93;;;-6.50;99.90;;;;;;5016789;28;20037;-69
2022/12/14 03:31:29;;;;;;;47.73;19.97;;;-6.60;99.90;;;;;;5028558;28;20043;-69
2022/12/14 03:33:57;;;;;;;50.07;19.93;;;-6.60;99.90;;;;;;5033745;28;20045;-68
2022/12/14 03:36:48;;;;;;;49.07;19.97;;;-6.60;99.90;;;;;;5041912;28;20048;-69
2022/12/14 03:39:17;;;;;;;;;;;-6.60;99.90;;;;;;5014891;28;20471;-69
2022/12/14 03:42:18;;;;;;;44.37;18.30;;;-6.60;99.90;;;;;;5033913;28;19931;-68
2022/12/14 03:45:08;;;;;;;40.57;18.47;;;-6.50;99.90;;;;;;5019158;28;20055;-69
2022/12/14 03:47:43;;;;;;;50.77;20.03;;;-6.30;99.90;;;;;;5063272;28;20050;-69
2022/12/14 03:50:14;;;;;;;48.80;19.67;;;-6.30;99.90;;;;;;5053912;28;20056;-68
2022/12/14 03:53:04;;;;;;;45.20;19.73;;;-6.20;99.90;;;;;;5057025;28;20042;-68
2022/12/14 03:55:32;;;;;;;46.17;19.07;;;-6.10;99.90;;;;;;5029369;28;20124;-69
2022/12/14 03:58:04;;;;;;;50.10;20.00;;;-6.00;99.90;;;;;;5041474;28;20494;-69
2022/12/14 04:00:35;;;;;;;49.90;20.87;;;-5.90;99.90;;;;;;5034055;28;20051;-69
2022/12/14 04:03:12;;;;;;;50.97;19.95;;;-5.80;99.90;;;;;;5032483;28;20064;-68
2022/12/14 04:05:45;;;;;;;48.53;18.57;;;-5.90;99.90;;;;;;5034381;28;20041;-69
2022/12/14 04:08:49;;;;;;;41.00;18.03;;;-6.10;99.90;;;;;;5030429;28;20084;-68
2022/12/14 04:19:47;;;;;;;43.47;17.67;;;-6.70;99.90;;;;;;5032933;28;20457;-69
2022/12/14 04:22:17;;;;;;;47.37;18.70;;;-6.80;99.90;;;;;;5041550;28;20043;-69
2022/12/14 04:27:52;;;;;;;44.60;18.17;;;-7.00;99.90;;;;;;5022493;28;20299;-68
2022/12/14 04:30:18;;;;;;;43.87;17.87;;;-7.10;99.90;;;;;;5042395;28;20129;-69
2022/12/14 04:32:58;;;;;;;49.93;19.17;;;-7.20;99.90;;;;;;5030318;28;20132;-69
2022/12/14 04:35:38;;;;;;;48.53;18.23;;;-7.20;99.90;;;;;;5027941;28;20045;-68
2022/12/14 04:38:13;;;;;;;43.57;17.97;;;-7.30;99.90;;;;;;5028154;28;20638;-68
2022/12/14 04:40:45;;;;;;;41.63;17.73;;;-7.20;99.90;;;;;;5030386;28;20041;-68
2022/12/14 04:43:18;;;;;;;50.37;19.37;;;-7.20;99.90;;;;;;5024546;28;20112;-68
2022/12/14 04:45:58;;;;;;;53.60;19.27;;;-7.30;99.90;;;;;;5027724;28;20090;-68
2022/12/14 04:48:35;;;;;;;44.43;19.17;;;-7.20;99.90;;;;;;5028198;28;20051;-68
2022/12/14 04:51:11;;;;;;;43.77;18.47;;;-7.20;99.90;;;;;;5014361;28;20037;-70
2022/12/14 04:53:39;;;;;;;51.33;20.03;;;-7.20;99.90;;;;;;5047317;28;20090;-68
2022/12/14 04:56:08;;;;;;;50.33;19.63;;;-7.20;99.90;;;;;;5052705;28;20063;-69
2022/12/14 04:58:35;;;;;;;50.73;20.03;;;-7.20;99.90;;;;;;5031097;28;20060;-68
2022/12/14 05:01:18;;;;;;;51.90;19.03;;;-7.30;99.90;;;;;;5031882;28;20090;-69
2022/12/14 05:04:04;;;;;;;49.07;20.60;;;-7.30;99.90;;;;;;5016694;28;20077;-68
2022/12/14 05:06:45;;;;;;;41.53;18.17;;;-7.30;99.90;;;;;;5013318;28;20487;-69
2022/12/14 05:09:26;;;;;;;44.67;18.58;;;-7.10;99.90;;;;;;5035499;28;20044;-69
2022/12/14 05:12:07;;;;;;;42.47;18.15;;;-7.00;99.90;;;;;;5031164;28;20051;-69
2022/12/14 05:14:35;;;;;;;;;;;-7.10;99.90;;;;;;5025222;28;20095;-69
2022/12/14 05:17:04;;;;;;;43.33;18.73;;;-7.20;99.90;;;;;;5015899;28;19921;-68
2022/12/14 05:19:30;;;;;;;46.70;19.10;;;-7.20;99.90;;;;;;5036638;28;20041;-69
2022/12/14 05:21:55;;;;;;;47.87;18.43;;;-7.20;99.90;;;;;;5055958;28;20052;-69
2022/12/14 05:24:21;;;;;;;50.13;19.87;;;-7.20;99.90;;;;;;5021846;28;20402;-69
2022/12/14 05:26:46;;;;;;;47.23;19.73;;;-7.00;99.90;;;;;;5033375;28;20038;-68
2022/12/14 05:29:13;;;;;;;47.60;19.87;;;-6.90;99.90;;;;;;5034438;28;20048;-69
2022/12/14 05:31:39;;;;;;;40.53;17.90;;;-6.90;99.90;;;;;;5020717;28;20125;-69
2022/12/14 05:34:05;;;;;;;48.23;19.43;;;-7.00;99.90;;;;;;5048622;28;20120;-69
2022/12/14 05:36:31;;;;;;;45.03;19.43;;;-7.10;99.90;;;;;;5042399;28;20116;-69
2022/12/14 05:38:56;;;;;;;43.83;18.73;;;-7.10;99.90;;;;;;5052127;28;20482;-68
2022/12/14 05:41:22;;;;;;;46.90;19.50;;;-7.20;99.90;;;;;;5047842;28;20045;-69
2022/12/14 05:43:47;;;;;;;51.43;19.10;;;-7.20;99.90;;;;;;5035865;28;20037;-68
2022/12/14 05:46:13;;;;;;;55.80;21.13;;;-7.20;99.90;;;;;;5038029;28;20056;-70
2022/12/14 05:48:39;;;;;;;46.93;19.07;;;-7.20;99.90;;;;;;5031014;28;20080;-69
2022/12/14 05:51:12;;;;;;;47.33;20.03;;;-7.10;99.90;;;;;;5033061;28;20106;-69
2022/12/14 05:53:38;;;;;;;48.07;19.27;;;-7.00;99.90;;;;;;5036232;28;20041;-68
2022/12/14 05:56:08;;;;;;;47.20;18.50;;;-6.90;99.90;;;;;;5026768;28;20110;-70
2022/12/14 05:58:34;;;;;;;48.23;18.63;;;-7.00;99.90;;;;;;5036715;28;20083;-69
2022/12/14 06:01:05;;;;;;;45.93;20.03;;;-7.00;99.90;;;;;;5029743;28;20037;-70
2022/12/14 06:03:30;;;;;;;55.27;21.60;;;-7.10;99.90;;;;;;5031729;28;20467;-70
2022/12/14 06:06:04;;;;;;;51.70;19.67;;;-7.10;99.90;;;;;;5029602;28;20061;-69
2022/12/14 06:08:35;;;;;;;52.60;20.27;;;-7.10;99.90;;;;;;5044203;28;20142;-68
2022/12/14 06:11:12;;;;;;;54.38;20.45;;;-7.00;99.90;;;;;;5048908;28;20399;-69
2022/12/14 06:13:39;;;;;;;50.80;19.17;;;-6.90;99.90;;;;;;5034871;28;20041;-68
2022/12/14 06:16:10;;;;;;;49.93;19.20;;;-6.90;99.90;;;;;;5047121;28;20045;-68
2022/12/14 06:18:39;;;;;;;45.92;19.33;;;-6.90;99.90;;;;;;5036704;28;20087;-68
2022/12/14 06:21:05;;;;;;;56.70;19.47;;;-6.90;99.90;;;;;;5049594;28;20049;-69
2022/12/14 06:23:30;;;;;;;46.40;18.73;;;-7.00;99.90;;;;;;5043643;28;20098;-70
2022/12/14 06:25:56;;;;;;;47.93;19.23;;;-7.00;99.90;;;;;;5033840;28;20035;-69
2022/12/14 06:28:22;;;;;;;50.50;19.23;;;-7.00;99.90;;;;;;5031486;28;20061;-69
2022/12/14 06:30:48;;;;;;;50.10;19.53;;;-7.00;99.90;;;;;;5044792;28;20035;-68
2022/12/14 06:33:14;;;;;;;49.43;18.77;;;-7.00;99.90;;;;;;5034283;28;20450;-69
2022/12/14 06:35:44;;;;;;;48.63;19.70;;;-7.10;99.90;;;;;;5036686;28;20175;-69
2022/12/14 06:38:10;;;;;;;52.97;20.17;;;-7.20;99.90;;;;;;5027358;28;20144;-69
2022/12/14 06:40:36;;;;;;;50.60;19.17;;;-7.20;99.90;;;;;;5021379;28;20037;-69
2022/12/14 06:43:01;;;;;;;42.57;17.23;;;-7.30;99.90;;;;;;5031411;28;20037;-69
2022/12/14 06:45:28;;;;;;;42.97;17.17;;;-7.40;99.90;;;;;;5032736;28;20037;-69
2022/12/14 06:47:54;;;;;;;42.70;17.77;;;-7.50;99.90;;;;;;5028004;28;20045;-69
2022/12/14 06:50:19;;;;;;;44.67;17.97;;;-7.50;99.90;;;;;;5027002;28;20063;-70
2022/12/14 06:52:49;;;;;;;46.07;18.53;;;-7.50;99.90;;;;;;5026007;28;20052;-69
2022/12/14 06:55:14;;;;;;;47.50;18.87;;;-7.50;99.90;;;;;;5023156;28;20037;-68
2022/12/14 06:57:40;;;;;;;48.60;19.07;;;-7.50;99.90;;;;;;5015328;28;20750;-68
2022/12/14 07:00:08;;;;;;;51.00;19.80;;;-7.50;99.90;;;;;;5023494;28;20522;-70
2022/12/14 07:02:34;;;;;;;45.60;19.10;;;-7.50;99.90;;;;;;5021978;28;20029;-68
2022/12/14 07:05:00;;;;;;;44.67;18.77;;;-7.40;99.90;;;;;;5018970;28;20448;-69
2022/12/14 07:07:25;;;;;;;44.23;18.20;;;-7.40;99.90;;;;;;5019350;28;20057;-69
2022/12/14 07:09:51;;;;;;;46.00;17.87;;;-7.40;99.90;;;;;;5019625;28;20400;-69
2022/12/14 07:12:16;;;;;;;49.03;18.80;;;-7.40;99.90;;;;;;5017406;28;20143;-69
2022/12/14 07:14:42;;;;;;;47.97;19.57;;;-7.30;99.90;;;;;;5021389;28;20033;-69
2022/12/14 07:17:07;;;;;;;48.00;18.73;;;-7.30;99.90;;;;;;5021590;28;20384;-68
2022/12/14 07:19:33;;;;;;;47.30;19.77;;;-7.30;99.90;;;;;;5031072;28;20049;-69
2022/12/14 07:22:02;;;;;;;48.00;19.27;;;-7.40;99.90;;;;;;5009613;28;20045;-70
2022/12/14 07:24:29;;;;;;;50.80;19.40;;;-7.30;99.90;;;;;;5011283;28;20044;-68
2022/12/14 07:26:55;;;;;;;49.30;19.27;;;-7.20;99.90;;;;;;5023434;28;20147;-69
2022/12/14 07:29:21;;;;;;;47.23;19.90;;;-7.10;99.90;;;;;;5016502;28;20037;-68
2022/12/14 07:31:47;;;;;;;46.50;18.87;;;-7.20;99.90;;;;;;5027273;28;20698;-67
2022/12/14 07:34:13;;;;;;;46.07;18.00;;;-7.20;99.90;;;;;;5029755;28;20043;-69
2022/12/14 07:36:39;;;;;;;46.70;17.97;;;-7.30;99.90;;;;;;5031456;28;20071;-69
2022/12/14 07:39:04;;;;;;;50.33;18.93;;;-7.30;99.90;;;;;;5016166;28;20037;-68
2022/12/14 07:41:31;;;;;;;46.27;18.30;;;-7.50;99.90;;;;;;5120321;22;20036;-66
2022/12/14 07:43:58;;;;;;;45.13;19.40;;;-7.60;99.90;;;;;;5072630;28;20071;-66
2022/12/14 07:46:27;;;;;;;44.13;17.67;;;-7.70;99.90;;;;;;5063797;28;20036;-67
2022/12/14 07:48:55;;;;;;;43.20;17.80;;;-7.80;99.90;;;;;;5088040;28;20043;-67
2022/12/14 07:51:24;;;;;;;44.73;18.23;;;-7.80;99.90;;;;;;5100870;28;20035;-67
2022/12/14 07:53:51;;;;;;;46.80;18.10;;;-7.90;99.90;;;;;;5085641;28;20404;-66
2022/12/14 07:56:22;;;;;;;45.63;17.93;;;-7.90;99.90;;;;;;5080470;28;20050;-67
2022/12/14 07:58:48;;;;;;;53.25;18.88;;;-7.90;99.90;;;;;;5093864;28;20065;-66
2022/12/14 08:01:17;;;;;;;46.23;18.80;;;-7.90;99.90;;;;;;5091644;28;20036;-66
2022/12/14 08:03:51;;;;;;;48.20;18.53;;;-7.80;99.90;;;;;;5094249;28;20039;-67
2022/12/14 08:06:18;;;;;;;46.37;18.43;;;-7.70;99.90;;;;;;5085069;28;20077;-67
2022/12/14 08:08:44;;;;;;;42.23;17.83;;;-7.50;99.90;;;;;;5075371;28;20039;-67
2022/12/14 08:11:10;;;;;;;43.73;18.37;;;-7.40;99.90;;;;;;5088620;28;20032;-66
2022/12/14 08:13:37;;;;;;;49.67;18.90;;;-7.40;99.90;;;;;;5095185;28;20043;-66
2022/12/14 08:16:09;;;;;;;39.67;17.10;;;-7.50;99.90;;;;;;5093410;28;20069;-67
2022/12/14 08:18:34;;;;;;;;;;;-7.50;99.90;;;;;;5092080;28;20489;-65
2022/12/14 08:21:01;;;;;;;42.53;17.40;;;-7.50;99.90;;;;;;5097305;28;20007;-67
2022/12/14 08:23:27;;;;;;;39.73;17.03;;;-7.60;99.90;;;;;;5091170;28;20043;-66
2022/12/14 08:25:54;;;;;;;46.27;19.37;;;-7.50;99.90;;;;;;5089862;28;20429;-66
2022/12/14 08:28:20;;;;;;;46.53;18.03;;;-7.50;99.90;;;;;;5089436;28;20124;-66
2022/12/14 08:30:46;;;;;;;44.53;17.50;;;-7.50;99.90;;;;;;5095764;28;20048;-66
2022/12/14 08:33:11;;;;;;;45.87;18.27;;;-7.50;99.90;;;;;;5090767;28;20032;-66
2022/12/14 08:35:37;;;;;;;46.40;17.80;;;-7.40;99.90;;;;;;5089040;28;20482;-66
2022/12/14 08:38:03;;;;;;;51.93;19.50;;;-7.30;99.90;;;;;;5094896;28;20034;-66
2022/12/14 08:40:28;;;;;;;47.40;18.23;;;-7.30;99.90;;;;;;5090546;28;20032;-67
2022/12/14 08:42:54;;;;;;;44.70;18.17;;;-7.20;99.90;;;;;;5091587;28;20036;-66
2022/12/14 08:45:20;;;;;;;43.87;17.57;;;-7.10;99.90;;;;;;5086719;28;20036;-66
2022/12/14 08:47:46;;;;;;;42.40;18.70;;;-7.10;99.90;;;;;;5082297;28;20058;-66
2022/12/14 08:50:12;;;;;;;51.63;18.60;;;-7.10;99.90;;;;;;5102327;28;20047;-66
2022/12/14 08:52:38;;;;;;;45.97;19.73;;;-7.00;99.90;;;;;;5083758;28;20036;-66
2022/12/14 08:55:05;;;;;;;46.37;18.43;;;-7.00;99.90;;;;;;5098784;28;20059;-66
2022/12/14 08:57:30;;;;;;;47.00;18.60;;;-7.00;99.90;;;;;;5072493;28;20051;-66
2022/12/14 08:59:56;;;;;;;46.20;18.60;;;-6.90;99.90;;;;;;5074024;28;20039;-66
2022/12/14 09:02:21;;;;;;;45.30;19.47;;;-6.90;99.90;;;;;;5081407;28;20069;-66
2022/12/14 09:04:47;;;;;;;49.00;18.27;;;-6.90;99.90;;;;;;5092910;28;20374;-67
2022/12/14 09:07:13;;;;;;;43.60;18.60;;;-6.80;99.90;;;;;;5099072;28;20078;-67
2022/12/14 09:09:38;;;;;;;49.07;19.03;;;-6.80;99.90;;;;;;5069945;28;20046;-67
2022/12/14 09:12:07;;;;;;;47.93;19.80;;;-6.70;99.90;;;;;;5101503;28;20039;-66
2022/12/14 09:14:33;;;;;;;51.87;18.67;;;-6.70;99.90;;;;;;5083329;28;20074;-66
2022/12/14 09:17:00;;;;;;;49.93;19.20;;;-6.70;99.90;;;;;;5076489;28;20401;-67
2022/12/14 09:19:26;;;;;;;54.27;20.50;;;-6.60;99.90;;;;;;5096169;28;20036;-66
2022/12/14 09:21:52;;;;;;;40.77;18.13;;;-6.60;99.90;;;;;;5058989;28;20036;-66
2022/12/14 09:24:19;;;;;;;46.47;17.90;;;-6.60;99.90;;;;;;5101582;28;20844;-66
2022/12/14 09:26:45;;;;;;;48.03;18.80;;;-6.60;99.90;;;;;;5094528;28;20047;-65
2022/12/14 09:29:15;;;;;;;51.13;20.37;;;-6.50;99.90;;;;;;5103367;28;20464;-66
2022/12/14 09:31:41;;;;;;;50.95;20.77;;;-6.50;99.90;;;;;;5102035;28;20477;-65
2022/12/14 09:34:08;;;;;;;52.93;20.10;;;-6.40;99.90;;;;;;5099317;28;20039;-66
2022/12/14 09:36:34;;;;;;;51.60;20.50;;;-6.40;99.90;;;;;;5103038;28;20040;-65
2022/12/14 09:38:59;;;;;;;55.97;22.00;;;-6.30;99.90;;;;;;5104606;28;20098;-65
2022/12/14 09:41:32;;;;;;;55.20;22.37;;;-6.20;99.90;;;;;;5107541;28;20054;-65
2022/12/14 09:44:12;;;;;;;50.33;21.53;;;-6.20;99.90;;;;;;5094914;28;20063;-65
2022/12/14 09:47:05;;;;;;;57.87;23.10;;;-6.10;99.90;;;;;;5087472;28;20040;-65
2022/12/14 09:49:32;;;;;;;54.00;22.30;;;-6.10;99.90;;;;;;5087364;28;20043;-65
2022/12/14 09:52:00;;;;;;;52.43;22.10;;;-5.90;99.90;;;;;;5104523;28;20040;-67
2022/12/14 09:54:33;;;;;;;58.33;23.20;;;-5.90;99.90;;;;;;5101792;28;20035;-66
2022/12/14 09:57:12;;;;;;;54.47;24.10;;;-5.80;99.90;;;;;;5102129;28;20228;-65
2022/12/14 09:59:38;;;;;;;53.83;21.97;;;-5.70;99.90;;;;;;5082798;28;20048;-65
2022/12/14 10:02:16;;;;;;;55.13;23.80;;;-5.60;99.90;;;;;;5106272;28;20038;-66
2022/12/14 10:05:14;;;;;;;60.33;23.53;;;-5.60;99.90;;;;;;5104796;28;20131;-66
2022/12/14 10:08:05;;;;;;;47.70;21.23;;;-5.50;99.90;;;;;;5097979;28;20082;-66
2022/12/14 10:10:50;;;;;;;54.10;22.63;;;-5.40;99.90;;;;;;5093011;28;20042;-66
2022/12/14 10:13:40;;;;;;;48.43;21.33;;;-5.30;99.90;;;;;;5077487;28;20493;-66
2022/12/14 10:16:30;;;;;;;48.53;21.57;;;-5.20;99.90;;;;;;5092017;28;20604;-65
2022/12/14 10:19:19;;;;;;;51.77;22.97;;;-5.10;99.90;;;;;;5104159;28;20084;-65
2022/12/14 10:21:47;;;;;;;56.72;23.08;;;-5.00;99.90;;;;;;5086135;28;20036;-66
2022/12/14 10:24:22;;;;;;;55.80;23.77;;;-4.90;99.90;;;;;;5085838;28;20051;-66
2022/12/14 10:26:52;;;;;;;55.53;24.63;;;-4.80;99.90;;;;;;5094170;28;20051;-64
2022/12/14 10:29:26;;;;;;;59.33;23.97;;;-4.70;99.90;;;;;;5104054;28;20035;-66
2022/12/14 10:31:56;;;;;;;65.93;25.07;;;-4.70;99.90;;;;;;5083481;28;20544;-64
2022/12/14 10:34:27;;;;;;;54.90;23.83;;;-4.60;99.90;;;;;;5097022;28;20047;-66
2022/12/14 10:37:13;;;;;;;60.67;23.58;;;-4.50;99.90;;;;;;5077162;28;20054;-66
2022/12/14 10:39:59;;;;;;;51.97;22.67;;;-4.50;99.90;;;;;;5094989;28;20134;-67
2022/12/14 10:42:54;;;;;;;52.45;21.98;;;-4.40;99.90;;;;;;5080568;28;20036;-65
2022/12/14 10:45:58;;;;;;;52.72;22.67;;;-4.40;99.90;;;;;;5092650;28;20059;-66
2022/12/14 10:48:36;;;;;;;50.15;21.33;;;-4.30;99.90;;;;;;5093346;28;20036;-67
2022/12/14 10:51:23;;;;;;;54.15;23.08;;;-4.20;99.90;;;;;;5089434;28;20040;-66
2022/12/14 10:53:58;;;;;;;55.83;23.48;;;-4.20;99.90;;;;;;5074093;28;20490;-65
2022/12/14 10:56:33;;;;;;;50.53;22.80;;;-4.10;99.90;;;;;;5075141;28;20048;-66
2022/12/14 10:59:16;;;;;;;55.92;22.42;;;-4.00;99.90;;;;;;5095368;28;20040;-65
2022/12/14 11:01:44;;;;;;;51.03;21.75;;;-3.90;99.90;;;;;;5074042;28;20039;-66
2022/12/14 11:04:31;;;;;;;49.60;20.98;;;-4.00;99.90;;;;;;5092523;28;20043;-66
2022/12/14 11:07:00;;;;;;;46.28;21.98;;;-3.90;99.90;;;;;;5092038;28;20040;-66
2022/12/14 11:09:26;;;;;;;50.65;21.55;;;-3.80;99.90;;;;;;5092368;28;20032;-66
2022/12/14 11:12:19;;;;;;;49.20;21.80;;;-3.80;99.90;;;;;;5073990;28;20036;-66
2022/12/14 11:14:58;;;;;;;54.60;22.15;;;-3.80;99.90;;;;;;5106579;28;20147;-66
2022/12/14 11:17:35;;;;;;;46.05;18.95;;;-3.80;99.90;;;;;;5093289;28;20028;-65
2022/12/14 11:20:04;;;;;;;45.72;19.35;;;-3.70;99.90;;;;;;5074032;28;20441;-65
2022/12/14 11:23:01;;;;;;;42.33;17.77;;;-3.60;99.90;;;;;;5074173;28;20044;-65
2022/12/14 11:25:42;;;;;;;38.03;16.73;;;-3.60;99.90;;;;;;5060360;28;20673;-65
2022/12/14 11:28:14;;;;;;;40.15;16.05;;;-3.50;99.90;;;;;;5074061;28;20051;-65
2022/12/14 11:30:40;;;;;;;46.95;18.20;;;-3.40;99.90;;;;;;5095828;28;20532;-65
2022/12/14 11:33:05;;;;;;;43.13;18.20;;;-3.30;99.90;;;;;;5101142;28;20039;-65
2022/12/14 11:35:31;;;;;;;40.35;16.15;;;-3.30;99.90;;;;;;5092514;28;20123;-65
2022/12/14 11:37:58;;;;;;;36.80;16.55;;;-3.20;99.90;;;;;;5092120;28;20040;-65
2022/12/14 11:40:26;;;;;;;44.10;16.23;;;-3.10;99.90;;;;;;5097948;28;20485;-65
2022/12/14 11:43:00;;;;;;;38.08;16.63;;;-3.10;99.90;;;;;;5092492;28;20028;-65
2022/12/14 11:45:25;;;;;;;35.53;15.07;;;-3.20;99.90;;;;;;5073822;28;20032;-65
2022/12/14 11:48:17;;;;;;;37.22;16.10;;;-3.10;99.90;;;;;;5073972;28;20062;-65
2022/12/14 11:50:45;;;;;;;35.33;14.93;;;-3.10;99.90;;;;;;5075346;28;20040;-64
2022/12/14 11:53:16;;;;;;;40.83;15.68;;;-3.10;99.90;;;;;;5105662;28;20524;-64
2022/12/14 11:55:44;;;;;;;;;;;-3.10;99.90;;;;;;5108909;28;20540;-63
2022/12/14 11:58:19;;;;;;;33.45;13.18;;;-3.00;99.90;;;;;;5090864;28;19945;-64
2022/12/14 12:00:53;;;;;;;33.92;14.60;;;-2.90;99.90;;;;;;5091499;28;20054;-65
2022/12/14 12:03:28;;;;;;;38.65;16.35;;;-2.90;99.90;;;;;;5074183;28;20040;-64
2022/12/14 12:06:02;;;;;;;44.50;18.77;;;-2.80;99.90;;;;;;5070969;28;20040;-64
2022/12/14 12:08:30;;;;;;;32.97;14.63;;;-2.80;99.90;;;;;;5091422;28;20036;-65
2022/12/14 12:10:59;;;;;;;37.60;17.50;;;-2.70;99.90;;;;;;5072914;28;20371;-64
2022/12/14 12:13:34;;;;;;;41.17;18.38;;;-2.70;99.90;;;;;;5079879;28;20051;-64
2022/12/14 12:16:03;;;;;;;41.53;18.98;;;-2.60;99.90;;;;;;5094048;28;20035;-64
2022/12/14 12:18:48;;;;;;;39.65;17.98;;;-2.60;99.90;;;;;;5073382;28;20517;-64
2022/12/14 12:21:20;;;;;;;39.95;18.33;;;-2.60;99.90;;;;;;5091481;28;20036;-64
2022/12/14 12:24:10;;;;;;;39.35;18.05;;;-2.60;99.90;;;;;;5089880;28;20402;-64
2022/12/14 12:26:40;;;;;;;47.97;19.65;;;-2.60;99.90;;;;;;5091625;28;20073;-64
2022/12/14 12:29:24;;;;;;;47.10;18.58;;;-2.60;99.90;;;;;;5090226;28;20039;-64
2022/12/14 12:32:09;;;;;;;41.78;18.23;;;-2.50;99.90;;;;;;5096819;28;20040;-65
2022/12/14 12:34:45;;;;;;;40.28;18.15;;;-2.50;99.90;;;;;;5093263;28;20032;-64
2022/12/14 12:37:17;;;;;;;40.80;17.42;;;-2.50;99.90;;;;;;5095823;28;20513;-65
2022/12/14 12:39:47;;;;;;;40.35;18.33;;;-2.50;99.90;;;;;;5094124;28;20036;-65
2022/12/14 12:42:37;;;;;;;41.75;19.05;;;-2.50;99.90;;;;;;5097661;28;20035;-64
2022/12/14 12:45:34;;;;;;;43.65;17.73;;;-2.40;99.90;;;;;;5110754;28;20036;-64
2022/12/14 12:48:06;;;;;;;37.97;16.80;;;-2.40;99.90;;;;;;5094188;28;20379;-65
2022/12/14 12:50:35;;;;;;;38.90;17.45;;;-2.30;99.90;;;;;;5095009;28;20047;-64
2022/12/14 12:53:16;;;;;;;38.95;17.60;;;-2.30;99.90;;;;;;5095320;28;20040;-65
2022/12/14 12:55:50;;;;;;;36.22;17.52;;;-2.30;99.90;;;;;;5094836;28;20054;-65
2022/12/14 12:58:28;;;;;;;37.90;16.98;;;-2.20;99.90;;;;;;5076533;28;20055;-64
2022/12/14 13:00:58;;;;;;;40.45;16.55;;;-2.20;99.90;;;;;;5094553;28;20085;-64
2022/12/14 13:03:27;;;;;;;41.80;17.95;;;-2.10;99.90;;;;;;5093418;28;20039;-63